createdAt,value
2023-05-07T00:00:08.689Z,100887.8
2023-05-07T00:01:08.247Z,100890.94
2023-05-07T00:02:08.254Z,100891.56
2023-05-07T00:03:08.344Z,100892.54
2023-05-07T00:04:08.378Z,100890.8
2023-05-07T00:05:09.448Z,100887.64
2023-05-07T00:06:08.224Z,100896.95
2023-05-07T00:07:08.206Z,100901.14
2023-05-07T00:08:08.328Z,100897.64
2023-05-07T00:09:08.234Z,100901.79
2023-05-07T00:10:09.067Z,100902.23
2023-05-07T00:11:08.269Z,100902.14
2023-05-07T00:12:08.260Z,100905.34
2023-05-07T00:13:08.308Z,100906.38
2023-05-07T00:14:08.446Z,100906.24
2023-05-07T00:15:09.354Z,100905.5
2023-05-07T00:16:08.492Z,100903.88
2023-05-07T00:17:08.413Z,100907.89
2023-05-07T00:18:08.375Z,100909.09
2023-05-07T00:19:08.404Z,100906.6
2023-05-07T00:20:09.091Z,100909.59
2023-05-07T00:21:08.411Z,100907.01
2023-05-07T00:22:08.919Z,100905.79
2023-05-07T00:23:08.470Z,100903.62
2023-05-07T00:24:08.444Z,100904.8
2023-05-07T00:25:08.930Z,100905.73
2023-05-07T00:26:08.502Z,100902.79
2023-05-07T00:27:08.484Z,100908.98
2023-05-07T00:28:08.560Z,100902.27
2023-05-07T00:29:08.540Z,100903.47
2023-05-07T00:30:09.408Z,100900.44
2023-05-07T00:31:08.504Z,100904.5
2023-05-07T00:32:09.237Z,100896.02
2023-05-07T00:33:08.935Z,100901.14
2023-05-07T00:34:09.144Z,100897.78
2023-05-07T00:35:09.451Z,100899.36
2023-05-07T00:36:09.351Z,100896.41
2023-05-07T00:37:09.150Z,100896.89
2023-05-07T00:38:09.358Z,100896.75
2023-05-07T00:39:09.177Z,100900.8
2023-05-07T00:40:10.160Z,100901.91
2023-05-07T00:41:09.208Z,100900.37
2023-05-07T00:42:09.254Z,100901.25
2023-05-07T00:43:09.261Z,100900.58
2023-05-07T00:44:09.268Z,100901.23
2023-05-07T00:45:09.776Z,100901.57
2023-05-07T00:46:09.314Z,100898.84
2023-05-07T00:47:09.489Z,100902.3
2023-05-07T00:48:09.675Z,100906.81
2023-05-07T00:49:09.369Z,100904.55
2023-05-07T00:50:10.174Z,100905.01
2023-05-07T00:51:10.665Z,100907.37
2023-05-07T00:52:11.970Z,100902.14
2023-05-07T00:53:09.628Z,100897.67
2023-05-07T00:54:09.645Z,100903.34
2023-05-07T00:55:10.271Z,100905.25
2023-05-07T00:56:09.709Z,100904.81
2023-05-07T00:57:12.368Z,100904.32
2023-05-07T00:58:09.872Z,100909.84
2023-05-07T00:59:09.790Z,100907.52
2023-05-07T01:00:10.422Z,100908.78
2023-05-07T01:01:09.576Z,100912.75
2023-05-07T01:02:09.549Z,100910.93
2023-05-07T01:03:09.609Z,100916.97
2023-05-07T01:04:09.627Z,100916.7
2023-05-07T01:05:11.668Z,100916.77
2023-05-07T01:06:10.836Z,100916.71
2023-05-07T01:07:10.125Z,100914.62
2023-05-07T01:08:10.081Z,100914.67
2023-05-07T01:09:09.870Z,100918.12
2023-05-07T01:10:10.908Z,100913.58
2023-05-07T01:11:10.854Z,100915.47
2023-05-07T01:12:09.989Z,100916.85
2023-05-07T01:13:10.491Z,100918.05
2023-05-07T01:14:10.291Z,100918.27
2023-05-07T01:15:10.260Z,100915.41
2023-05-07T01:16:10.409Z,100915.94
2023-05-07T01:17:10.004Z,100914.97
2023-05-07T01:18:09.927Z,100915.94
2023-05-07T01:19:11.825Z,100920.33
2023-05-07T01:20:10.770Z,100917.87
2023-05-07T01:21:11.658Z,100919.38
2023-05-07T01:22:10.880Z,100921.23
2023-05-07T01:23:11.680Z,100920.45
2023-05-07T01:24:10.462Z,100924.22
2023-05-07T01:25:09.921Z,100922.44
2023-05-07T01:26:09.928Z,100925.34
2023-05-07T01:27:09.908Z,100928.75
2023-05-07T01:28:09.953Z,100924.75
2023-05-07T01:29:09.945Z,100923.36
2023-05-07T01:30:10.933Z,100926.15
2023-05-07T01:31:10.237Z,100924.62
2023-05-07T01:32:10.858Z,100929.88
2023-05-07T01:33:11.779Z,100929.22
2023-05-07T01:34:12.067Z,100929.2
2023-05-07T01:35:11.872Z,100929.91
2023-05-07T01:36:11.057Z,100930.23
2023-05-07T01:37:10.233Z,100925.81
2023-05-07T01:38:10.248Z,100928.59
2023-05-07T01:39:10.874Z,100932.45
2023-05-07T01:40:10.879Z,100932.27
2023-05-07T01:41:10.270Z,100931.06
2023-05-07T01:42:10.472Z,100926.52
2023-05-07T01:43:11.430Z,100928.75
2023-05-07T01:44:12.035Z,100930.09
2023-05-07T01:45:10.711Z,100926.38
2023-05-07T01:46:11.240Z,100926.6
2023-05-07T01:47:10.699Z,100928.97
2023-05-07T01:48:10.909Z,100927.42
2023-05-07T01:49:10.384Z,100931.67
2023-05-07T01:50:10.487Z,100929.09
2023-05-07T01:51:10.245Z,100929.78
2023-05-07T01:52:11.589Z,100928.68
2023-05-07T01:53:10.284Z,100929.39
2023-05-07T01:54:10.458Z,100930.16
2023-05-07T01:55:10.520Z,100930.69
2023-05-07T01:56:10.287Z,100929.52
2023-05-07T01:57:10.358Z,100929.22
2023-05-07T01:58:10.403Z,100932.61
2023-05-07T01:59:10.340Z,100930.06
2023-05-07T02:00:11.287Z,100930.52
2023-05-07T02:01:10.364Z,100927.77
2023-05-07T02:02:10.521Z,100931.45
2023-05-07T02:03:10.655Z,100931.17
2023-05-07T02:04:10.438Z,100934.83
2023-05-07T02:05:10.399Z,100931.24
2023-05-07T02:06:10.449Z,100926.61
2023-05-07T02:07:10.415Z,100928.02
2023-05-07T02:08:10.481Z,100929.48
2023-05-07T02:09:10.456Z,100932.31
2023-05-07T02:10:10.807Z,100933.36
2023-05-07T02:11:10.663Z,100929.69
2023-05-07T02:12:10.497Z,100935.66
2023-05-07T02:13:10.504Z,100931.66
2023-05-07T02:14:10.658Z,100934.7
2023-05-07T02:15:11.187Z,100935.13
2023-05-07T02:16:10.751Z,100939.2
2023-05-07T02:17:10.608Z,100935.73
2023-05-07T02:18:11.124Z,100938.73
2023-05-07T02:19:11.358Z,100938.81
2023-05-07T02:20:11.882Z,100939.97
2023-05-07T02:21:11.188Z,100938.15
2023-05-07T02:22:11.193Z,100941.53
2023-05-07T02:23:11.223Z,100939.42
2023-05-07T02:24:11.217Z,100937.48
2023-05-07T02:25:11.172Z,100947.37
2023-05-07T02:26:11.499Z,100943.99
2023-05-07T02:27:11.247Z,100945.28
2023-05-07T02:28:11.235Z,100945.37
2023-05-07T02:29:11.237Z,100942.47
2023-05-07T02:30:12.203Z,100946.84
2023-05-07T02:31:11.268Z,100948.14
2023-05-07T02:32:11.403Z,100952.79
2023-05-07T02:33:11.359Z,100945.28
2023-05-07T02:34:11.551Z,100948.16
2023-05-07T02:35:11.539Z,100951.37
2023-05-07T02:36:12.264Z,100951.05
2023-05-07T02:37:11.390Z,100952.38
2023-05-07T02:38:11.404Z,100950.34
2023-05-07T02:39:11.381Z,100949.8
2023-05-07T02:40:12.455Z,100958.27
2023-05-07T02:41:11.446Z,100955.09
2023-05-07T02:42:11.491Z,100955.5
2023-05-07T02:43:11.923Z,100948.91
2023-05-07T02:44:11.438Z,100958.05
2023-05-07T02:45:11.946Z,100954.09
2023-05-07T02:46:11.900Z,100955.45
2023-05-07T02:47:11.568Z,100955
2023-05-07T02:48:11.546Z,100954.91
2023-05-07T02:49:11.583Z,100954.89
2023-05-07T02:50:12.087Z,100956.27
2023-05-07T02:51:11.794Z,100957.26
2023-05-07T02:52:11.600Z,100956.52
2023-05-07T02:53:11.630Z,100956.5
2023-05-07T02:54:11.612Z,100962.62
2023-05-07T02:55:12.013Z,100956.92
2023-05-07T02:56:11.841Z,100962.43
2023-05-07T02:57:11.673Z,100961.75
2023-05-07T02:58:11.708Z,100961.23
2023-05-07T02:59:11.688Z,100965.67
2023-05-07T03:00:15.523Z,100968.38
2023-05-07T03:01:12.322Z,100969.44
2023-05-07T03:02:12.280Z,100969.97
2023-05-07T03:03:12.357Z,100972.69
2023-05-07T03:04:12.368Z,100969.34
2023-05-07T03:05:12.290Z,100968.38
2023-05-07T03:06:12.327Z,100967.66
2023-05-07T03:07:12.564Z,100969.91
2023-05-07T03:08:12.595Z,100972.23
2023-05-07T03:09:12.329Z,100972.16
2023-05-07T03:10:12.603Z,100972.62
2023-05-07T03:11:12.352Z,100972.13
2023-05-07T03:12:12.398Z,100973.12
2023-05-07T03:13:12.476Z,100970.8
2023-05-07T03:14:12.421Z,100969.92
2023-05-07T03:15:12.396Z,100970.77
2023-05-07T03:16:12.474Z,100973.3
2023-05-07T03:17:12.576Z,100973.55
2023-05-07T03:18:12.603Z,100976.61
2023-05-07T03:19:12.518Z,100975.45
2023-05-07T03:20:12.814Z,100978.66
2023-05-07T03:21:12.578Z,100978.22
2023-05-07T03:22:12.531Z,100978.95
2023-05-07T03:23:12.719Z,100979.98
2023-05-07T03:24:12.563Z,100978.71
2023-05-07T03:25:13.211Z,100984.64
2023-05-07T03:26:12.584Z,100981.72
2023-05-07T03:27:12.567Z,100978.45
2023-05-07T03:28:12.586Z,100980.77
2023-05-07T03:29:12.628Z,100978.12
2023-05-07T03:30:13.319Z,100978.41
2023-05-07T03:31:12.863Z,100982.16
2023-05-07T03:32:12.655Z,100976.88
2023-05-07T03:33:12.697Z,100982.66
2023-05-07T03:34:13.460Z,100981.04
2023-05-07T03:35:12.670Z,100986.77
2023-05-07T03:36:12.635Z,100983.28
2023-05-07T03:37:12.679Z,100984.19
2023-05-07T03:38:12.809Z,100985.45
2023-05-07T03:39:12.796Z,100985.75
2023-05-07T03:40:13.503Z,100986.12
2023-05-07T03:41:13.118Z,100988.58
2023-05-07T03:42:12.776Z,100984.49
2023-05-07T03:43:12.792Z,100987
2023-05-07T03:44:12.790Z,100987.06
2023-05-07T03:45:12.806Z,100990.72
2023-05-07T03:46:12.859Z,100989.54
2023-05-07T03:47:12.777Z,100993.74
2023-05-07T03:48:13.027Z,100993.58
2023-05-07T03:49:12.845Z,100995.44
2023-05-07T03:50:13.388Z,100996.54
2023-05-07T03:51:12.909Z,101000.19
2023-05-07T03:52:12.895Z,100995.94
2023-05-07T03:53:12.904Z,101000.62
2023-05-07T03:54:12.934Z,100998.94
2023-05-07T03:55:12.906Z,100997.41
2023-05-07T03:56:13.091Z,101001.12
2023-05-07T03:57:12.924Z,100998.3
2023-05-07T03:58:12.965Z,100998.3
2023-05-07T03:59:13.766Z,101002.71
2023-05-07T04:00:14.004Z,101005.59
2023-05-07T04:01:13.200Z,101007.42
2023-05-07T04:02:13.086Z,101007.2
2023-05-07T04:03:13.082Z,101006.55
2023-05-07T04:04:13.044Z,101011.52
2023-05-07T04:05:14.045Z,101011.56
2023-05-07T04:06:13.413Z,101016.33
2023-05-07T04:07:13.275Z,101015.19
2023-05-07T04:08:13.220Z,101018.95
2023-05-07T04:09:13.123Z,101015.56
2023-05-07T04:10:13.337Z,101015.51
2023-05-07T04:11:13.118Z,101017
2023-05-07T04:12:13.323Z,101016.28
2023-05-07T04:13:14.030Z,101015.29
2023-05-07T04:14:13.117Z,101019.83
2023-05-07T04:15:13.170Z,101019.05
2023-05-07T04:16:13.240Z,101020.41
2023-05-07T04:17:13.202Z,101021.55
2023-05-07T04:18:13.233Z,101021.91
2023-05-07T04:19:13.202Z,101023.88
2023-05-07T04:20:16.446Z,101021.27
2023-05-07T04:21:16.739Z,101020.7
2023-05-07T04:22:13.469Z,101021.52
2023-05-07T04:23:13.481Z,101024.39
2023-05-07T04:24:13.442Z,101019.57
2023-05-07T04:25:13.438Z,101024.34
2023-05-07T04:26:13.862Z,101023.82
2023-05-07T04:27:13.482Z,101021.45
2023-05-07T04:28:13.642Z,101023.62
2023-05-07T04:29:13.657Z,101027.08
2023-05-07T04:30:14.562Z,101024.83
2023-05-07T04:31:13.525Z,101024.55
2023-05-07T04:32:14.068Z,101024.48
2023-05-07T04:33:14.770Z,101023.11
2023-05-07T04:34:13.824Z,101029.29
2023-05-07T04:35:13.740Z,101029.34
2023-05-07T04:36:13.620Z,101029.62
2023-05-07T04:37:13.594Z,101026.64
2023-05-07T04:38:13.659Z,101032.02
2023-05-07T04:39:13.637Z,101030.88
2023-05-07T04:40:14.212Z,101030.38
2023-05-07T04:41:14.092Z,101024.17
2023-05-07T04:42:16.611Z,101028.42
2023-05-07T04:43:13.702Z,101030.59
2023-05-07T04:44:13.832Z,101026.7
2023-05-07T04:45:13.684Z,101031.51
2023-05-07T04:46:13.993Z,101026.23
2023-05-07T04:47:13.747Z,101026.72
2023-05-07T04:48:13.777Z,101026.83
2023-05-07T04:49:13.794Z,101030.64
2023-05-07T04:50:13.908Z,101028.55
2023-05-07T04:51:13.815Z,101030.98
2023-05-07T04:52:13.840Z,101032.31
2023-05-07T04:53:13.854Z,101031.55
2023-05-07T04:54:13.853Z,101032.17
2023-05-07T04:55:13.859Z,101032.92
2023-05-07T04:56:13.959Z,101040.73
2023-05-07T04:57:14.375Z,101038.95
2023-05-07T04:58:14.205Z,101038.52
2023-05-07T04:59:13.959Z,101038.67
2023-05-07T05:00:14.408Z,101037.12
2023-05-07T05:01:13.969Z,101038.02
2023-05-07T05:02:14.114Z,101038.05
2023-05-07T05:03:14.191Z,101036.3
2023-05-07T05:04:14.301Z,101036.27
2023-05-07T05:05:14.016Z,101039.01
2023-05-07T05:06:13.991Z,101040.31
2023-05-07T05:07:14.090Z,101036.98
2023-05-07T05:08:14.240Z,101040.25
2023-05-07T05:09:14.272Z,101039.98
2023-05-07T05:10:14.570Z,101042.11
2023-05-07T05:11:14.264Z,101036.58
2023-05-07T05:12:14.137Z,101040.56
2023-05-07T05:13:14.239Z,101041.78
2023-05-07T05:14:14.157Z,101040.56
2023-05-07T05:15:14.279Z,101044.89
2023-05-07T05:16:14.460Z,101042.04
2023-05-07T05:17:14.185Z,101045.33
2023-05-07T05:18:14.164Z,101041.23
2023-05-07T05:19:14.172Z,101043.04
2023-05-07T05:20:14.210Z,101043.16
2023-05-07T05:21:14.200Z,101044.23
2023-05-07T05:22:14.183Z,101042.97
2023-05-07T05:23:14.205Z,101042.69
2023-05-07T05:24:14.292Z,101044.62
2023-05-07T05:25:14.564Z,101042.64
2023-05-07T05:26:14.357Z,101042.55
2023-05-07T05:27:14.305Z,101041.6
2023-05-07T05:28:14.455Z,101038.62
2023-05-07T05:29:14.374Z,101040.14
2023-05-07T05:30:15.027Z,101038.23
2023-05-07T05:31:14.437Z,101041.35
2023-05-07T05:32:14.365Z,101039.25
2023-05-07T05:33:14.455Z,101036.69
2023-05-07T05:34:14.671Z,101039.65
2023-05-07T05:35:14.632Z,101036.41
2023-05-07T05:36:14.422Z,101040.14
2023-05-07T05:37:14.456Z,101038.05
2023-05-07T05:38:14.662Z,101043.12
2023-05-07T05:39:14.461Z,101038.77
2023-05-07T05:40:14.491Z,101039.55
2023-05-07T05:41:14.463Z,101040.61
2023-05-07T05:42:14.670Z,101039
2023-05-07T05:43:14.859Z,101044.05
2023-05-07T05:44:14.688Z,101037.95
2023-05-07T05:45:14.822Z,101038.33
2023-05-07T05:46:15.507Z,101039.02
2023-05-07T05:47:14.868Z,101042.53
2023-05-07T05:48:14.643Z,101046
2023-05-07T05:49:14.567Z,101047.47
2023-05-07T05:50:14.634Z,101042.81
2023-05-07T05:51:14.582Z,101043.12
2023-05-07T05:52:14.596Z,101042.74
2023-05-07T05:53:14.697Z,101038.97
2023-05-07T05:54:14.761Z,101040.19
2023-05-07T05:55:15.064Z,101045.16
2023-05-07T05:56:14.834Z,101046.25
2023-05-07T05:57:14.686Z,101046.3
2023-05-07T05:58:15.089Z,101048.16
2023-05-07T05:59:14.793Z,101047.15
2023-05-07T06:00:15.258Z,101045.37
2023-05-07T06:01:14.800Z,101042.31
2023-05-07T06:02:14.776Z,101044.89
2023-05-07T06:03:14.821Z,101049.71
2023-05-07T06:04:14.805Z,101047.16
2023-05-07T06:05:14.940Z,101044.79
2023-05-07T06:06:14.835Z,101046.62
2023-05-07T06:07:14.791Z,101047.14
2023-05-07T06:08:14.850Z,101050.59
2023-05-07T06:09:14.854Z,101047.59
2023-05-07T06:10:14.820Z,101048.09
2023-05-07T06:11:15.055Z,101053.67
2023-05-07T06:12:14.820Z,101047.47
2023-05-07T06:13:15.007Z,101051.01
2023-05-07T06:14:14.895Z,101054.1
2023-05-07T06:15:14.889Z,101057.36
2023-05-07T06:16:15.569Z,101055.26
2023-05-07T06:17:14.963Z,101052.23
2023-05-07T06:18:15.021Z,101053.77
2023-05-07T06:19:15.018Z,101060.27
2023-05-07T06:20:15.046Z,101058.59
2023-05-07T06:21:15.046Z,101063.19
2023-05-07T06:22:15.061Z,101060.55
2023-05-07T06:23:17.194Z,101063.4
2023-05-07T06:24:15.060Z,101064.98
2023-05-07T06:25:15.459Z,101062.01
2023-05-07T06:26:15.084Z,101065.66
2023-05-07T06:27:15.123Z,101067.27
2023-05-07T06:28:15.120Z,101065.83
2023-05-07T06:29:15.322Z,101060.73
2023-05-07T06:30:15.280Z,101062.5
2023-05-07T06:31:16.125Z,101066.03
2023-05-07T06:32:15.900Z,101067.33
2023-05-07T06:33:15.215Z,101063.48
2023-05-07T06:34:15.469Z,101068.13
2023-05-07T06:35:15.229Z,101068.78
2023-05-07T06:36:15.560Z,101065.47
2023-05-07T06:37:15.287Z,101064.52
2023-05-07T06:38:15.243Z,101071.48
2023-05-07T06:39:15.304Z,101071.7
2023-05-07T06:40:15.324Z,101068.86
2023-05-07T06:41:15.292Z,101065.8
2023-05-07T06:42:15.334Z,101072.52
2023-05-07T06:43:15.365Z,101067.31
2023-05-07T06:44:15.379Z,101071.95
2023-05-07T06:45:15.879Z,101072.52
2023-05-07T06:46:15.555Z,101072.83
2023-05-07T06:47:16.391Z,101066.55
2023-05-07T06:48:15.417Z,101065.22
2023-05-07T06:49:15.662Z,101069.48
2023-05-07T06:50:15.641Z,101065.66
2023-05-07T06:51:15.401Z,101065.84
2023-05-07T06:52:15.528Z,101063.27
2023-05-07T06:53:15.738Z,101064.6
2023-05-07T06:54:15.454Z,101063.05
2023-05-07T06:55:15.981Z,101066.86
2023-05-07T06:56:15.510Z,101064.75
2023-05-07T06:57:15.537Z,101061.56
2023-05-07T06:58:15.616Z,101065.91
2023-05-07T06:59:15.746Z,101060.05
2023-05-07T07:00:16.116Z,101061.53
2023-05-07T07:01:15.617Z,101065.7
2023-05-07T07:02:17.695Z,101063.3
2023-05-07T07:03:15.654Z,101058.95
2023-05-07T07:04:15.601Z,101057.24
2023-05-07T07:05:15.670Z,101062
2023-05-07T07:06:15.701Z,101057.15
2023-05-07T07:07:15.702Z,101068.73
2023-05-07T07:08:15.715Z,101059.67
2023-05-07T07:09:15.714Z,101058.06
2023-05-07T07:10:15.771Z,101059.8
2023-05-07T07:11:15.749Z,101061.77
2023-05-07T07:12:15.748Z,101061.39
2023-05-07T07:13:15.867Z,101057.9
2023-05-07T07:14:16.082Z,101065.52
2023-05-07T07:15:16.133Z,101058.86
2023-05-07T07:16:16.170Z,101058.67
2023-05-07T07:17:16.056Z,101055.34
2023-05-07T07:18:15.878Z,101063.66
2023-05-07T07:19:15.876Z,101059.73
2023-05-07T07:20:20.931Z,101060.8
2023-05-07T07:21:17.625Z,101060.75
2023-05-07T07:22:17.669Z,101063.23
2023-05-07T07:23:17.658Z,101062.69
2023-05-07T07:24:17.702Z,101060.8
2023-05-07T07:25:17.678Z,101063.41
2023-05-07T07:26:18.541Z,101065.27
2023-05-07T07:27:17.745Z,101064.34
2023-05-07T07:28:18.361Z,101063.38
2023-05-07T07:29:17.836Z,101067.82
2023-05-07T07:30:17.748Z,101064.66
2023-05-07T07:31:17.833Z,101066.91
2023-05-07T07:32:17.836Z,101065.33
2023-05-07T07:33:17.954Z,101059.36
2023-05-07T07:34:18.138Z,101058.72
2023-05-07T07:35:18.101Z,101052.16
2023-05-07T07:36:17.861Z,101057.89
2023-05-07T07:37:18.090Z,101054.61
2023-05-07T07:38:17.828Z,101055.89
2023-05-07T07:39:18.009Z,101058.5
2023-05-07T07:40:18.157Z,101063.93
2023-05-07T07:41:17.927Z,101058.84
2023-05-07T07:42:17.905Z,101053.48
2023-05-07T07:43:17.956Z,101059.11
2023-05-07T07:44:17.961Z,101060.78
2023-05-07T07:45:18.252Z,101061.42
2023-05-07T07:46:18.009Z,101064.67
2023-05-07T07:47:18.033Z,101058.14
2023-05-07T07:48:18.050Z,101057.02
2023-05-07T07:49:18.023Z,101060.41
2023-05-07T07:50:31.692Z,101062.37
2023-05-07T07:51:19.245Z,101058.67
2023-05-07T07:52:19.446Z,101062.28
2023-05-07T07:53:19.563Z,101060.17
2023-05-07T07:54:19.290Z,101061.12
2023-05-07T07:55:20.796Z,101057.39
2023-05-07T07:56:19.324Z,101064.07
2023-05-07T07:57:19.300Z,101057.5
2023-05-07T07:58:19.324Z,101060.09
2023-05-07T07:59:19.353Z,101061.69
2023-05-07T08:00:19.801Z,101059.16
2023-05-07T08:01:19.390Z,101058.17
2023-05-07T08:02:19.408Z,101056.52
2023-05-07T08:03:19.444Z,101061.45
2023-05-07T08:04:19.478Z,101060.92
2023-05-07T08:05:19.438Z,101062.39
2023-05-07T08:06:19.710Z,101055.8
2023-05-07T08:07:19.513Z,101061.55
2023-05-07T08:08:19.491Z,101060.47
2023-05-07T08:09:19.488Z,101056.67
2023-05-07T08:10:19.859Z,101053.86
2023-05-07T08:11:19.608Z,101048.84
2023-05-07T08:12:19.605Z,101056.6
2023-05-07T08:13:19.701Z,101052.78
2023-05-07T08:14:19.569Z,101052.8
2023-05-07T08:15:19.788Z,101049.34
2023-05-07T08:16:20.637Z,101050.98
2023-05-07T08:17:19.673Z,101048.64
2023-05-07T08:18:19.689Z,101047.66
2023-05-07T08:19:19.670Z,101052.39
2023-05-07T08:20:19.958Z,101051.23
2023-05-07T08:21:19.736Z,101051.91
2023-05-07T08:22:19.723Z,101048.22
2023-05-07T08:23:19.729Z,101044.88
2023-05-07T08:24:19.794Z,101048.91
2023-05-07T08:25:19.798Z,101045.16
2023-05-07T08:26:19.802Z,101043.59
2023-05-07T08:27:19.825Z,101039.3
2023-05-07T08:28:19.879Z,101049.98
2023-05-07T08:29:19.814Z,101043.81
2023-05-07T08:30:20.160Z,101044.75
2023-05-07T08:31:19.980Z,101048.02
2023-05-07T08:32:19.915Z,101048.66
2023-05-07T08:33:19.886Z,101046.02
2023-05-07T08:34:20.325Z,101048.02
2023-05-07T08:35:19.980Z,101048.64
2023-05-07T08:36:19.952Z,101047.32
2023-05-07T08:37:20.070Z,101044.27
2023-05-07T08:38:19.998Z,101041.7
2023-05-07T08:39:19.992Z,101042.62
2023-05-07T08:40:20.228Z,101037.05
2023-05-07T08:41:20.026Z,101041.98
2023-05-07T08:42:21.776Z,101040.75
2023-05-07T08:43:20.420Z,101039.53
2023-05-07T08:44:22.561Z,101036.31
2023-05-07T08:45:20.862Z,101040.91
2023-05-07T08:46:21.225Z,101040.58
2023-05-07T08:47:22.194Z,101040.41
2023-05-07T08:48:22.801Z,101033.77
2023-05-07T08:49:20.771Z,101035.53
2023-05-07T08:50:20.997Z,101034.11
2023-05-07T08:51:20.802Z,101037.39
2023-05-07T08:52:20.235Z,101041.67
2023-05-07T08:53:21.162Z,101040.12
2023-05-07T08:54:21.410Z,101043.65
2023-05-07T08:55:20.743Z,101041.21
2023-05-07T08:56:22.251Z,101039.28
2023-05-07T08:57:20.322Z,101044.36
2023-05-07T08:58:20.326Z,101044.2
2023-05-07T08:59:20.836Z,101038.32
2023-05-07T09:00:21.054Z,101037.36
2023-05-07T09:01:20.876Z,101042.09
2023-05-07T09:02:20.921Z,101035.5
2023-05-07T09:03:21.009Z,101035.2
2023-05-07T09:04:20.976Z,101030.32
2023-05-07T09:05:21.600Z,101026.19
2023-05-07T09:06:20.930Z,101035.88
2023-05-07T09:07:21.188Z,101034.34
2023-05-07T09:08:25.481Z,101037.09
2023-05-07T09:09:22.638Z,101035.34
2023-05-07T09:10:22.196Z,101040.25
2023-05-07T09:11:25.118Z,101035.74
2023-05-07T09:12:22.237Z,101033.1
2023-05-07T09:13:21.935Z,101033.52
2023-05-07T09:14:22.459Z,101024.8
2023-05-07T09:15:22.022Z,101022.8
2023-05-07T09:16:22.294Z,101029.48
2023-05-07T09:17:21.868Z,101025.38
2023-05-07T09:18:21.874Z,101025.17
2023-05-07T09:19:25.241Z,101030.2
2023-05-07T09:20:21.860Z,101027.72
2023-05-07T09:21:22.076Z,101026.61
2023-05-07T09:22:21.930Z,101022.38
2023-05-07T09:23:21.926Z,101016.41
2023-05-07T09:24:21.945Z,101023.77
2023-05-07T09:26:23.352Z,101019.68
2023-05-07T09:27:22.971Z,101028.22
2023-05-07T09:28:22.974Z,101026.69
2023-05-07T09:29:23.000Z,101020.97
2023-05-07T09:30:23.007Z,101017.22
2023-05-07T09:31:23.043Z,101027.26
2023-05-07T09:32:23.095Z,101036.77
2023-05-07T09:33:27.287Z,101030.23
2023-05-07T09:34:23.769Z,101035.97
2023-05-07T09:35:23.793Z,101030.67
2023-05-07T09:36:23.570Z,101035.84
2023-05-07T09:37:23.650Z,101032.71
2023-05-07T09:38:23.618Z,101030.14
2023-05-07T09:39:26.817Z,101026.71
2023-05-07T09:40:24.894Z,101024.71
2023-05-07T09:41:23.862Z,101022.53
2023-05-07T09:42:24.573Z,101023.21
2023-05-07T09:43:23.820Z,101026.15
2023-05-07T09:44:23.862Z,101028.74
2023-05-07T09:45:27.172Z,101022.23
2023-05-07T09:46:30.532Z,101026.07
2023-05-07T09:47:33.118Z,101023.1
2023-05-07T09:48:30.462Z,101020.53
2023-05-07T09:49:30.568Z,101018.72
2023-05-07T09:50:37.140Z,101018.55
2023-05-07T09:51:40.626Z,101016.31
2023-05-07T09:52:37.582Z,101015.62
2023-05-07T09:53:37.014Z,101017.4
2023-05-07T09:54:37.205Z,101017.77
2023-05-07T09:55:37.052Z,101017.61
2023-05-07T09:56:37.178Z,101019.23
2023-05-07T09:57:38.026Z,101018.3
2023-05-07T09:58:37.847Z,101014.52
2023-05-07T09:59:38.225Z,101016.12
2023-05-07T10:00:36.990Z,101019.73
2023-05-07T10:01:37.881Z,101015.51
2023-05-07T10:02:37.262Z,101012.8
2023-05-07T10:03:37.373Z,101014.78
2023-05-07T10:04:37.873Z,101013.34
2023-05-07T10:05:37.057Z,101014.07
2023-05-07T10:06:37.543Z,101020.23
2023-05-07T10:07:37.142Z,101015.7
2023-05-07T10:08:37.772Z,101017.72
2023-05-07T10:09:37.343Z,101015.98
2023-05-07T10:10:37.585Z,101013.27
2023-05-07T10:11:37.572Z,101010.06
2023-05-07T10:12:37.424Z,101011.96
2023-05-07T10:13:38.055Z,101007.64
2023-05-07T10:14:37.955Z,101008.24
2023-05-07T10:15:37.947Z,101008.12
2023-05-07T10:16:38.135Z,101008.05
2023-05-07T10:17:41.478Z,101004.98
2023-05-07T10:18:37.853Z,101004.48
2023-05-07T10:19:38.673Z,101003.62
2023-05-07T10:20:38.066Z,101002.99
2023-05-07T10:21:38.449Z,101003.78
2023-05-07T10:22:44.663Z,101003.88
2023-05-07T10:23:41.280Z,101008.09
2023-05-07T10:24:41.338Z,101000.75
2023-05-07T10:25:41.212Z,101009.02
2023-05-07T10:26:43.595Z,101004.5
2023-05-07T10:27:42.211Z,101001.14
2023-05-07T10:28:43.031Z,100998.36
2023-05-07T10:32:50.715Z,100995.98
2023-05-07T10:33:51.744Z,100996.31
2023-05-07T10:34:51.547Z,100995.5
2023-05-07T10:35:49.686Z,100998.78
2023-05-07T10:36:50.577Z,100998.84
2023-05-07T10:37:49.654Z,101002.58
2023-05-07T10:38:49.480Z,101000.3
2023-05-07T10:39:49.639Z,101002.38
2023-05-07T10:40:49.493Z,100997
2023-05-07T10:41:49.598Z,100999.08
2023-05-07T10:43:50.994Z,100998.75
2023-05-07T10:44:51.471Z,100992.25
2023-05-07T10:47:08.866Z,100993.53
2023-05-07T10:48:16.832Z,100991.66
2023-05-07T10:49:12.041Z,100995.2
2023-05-07T10:52:20.129Z,100998.41
2023-05-07T10:53:22.027Z,100993.98
2023-05-07T10:54:22.932Z,100994.61
2023-05-07T10:55:20.857Z,100994.82
2023-05-07T10:56:26.491Z,100992.77
2023-05-07T11:03:31.751Z,100988.84
2023-05-07T11:04:31.765Z,100981.92
2023-05-07T11:05:34.456Z,100981.39
2023-05-07T11:06:32.287Z,100982.54
2023-05-07T11:07:32.353Z,100982.84
2023-05-07T11:10:55.371Z,100984.38
2023-05-07T11:11:47.810Z,100983.94
2023-05-07T11:12:47.317Z,100981.09
2023-05-07T11:13:46.392Z,100981.02
2023-05-07T11:14:46.152Z,100982.36
2023-05-07T11:15:46.933Z,100975.7
2023-05-07T11:16:46.233Z,100979.28
2023-05-07T11:17:54.875Z,100975.31
2023-05-07T11:18:47.708Z,100974.48
2023-05-07T11:19:53.277Z,100974
2023-05-07T11:20:54.408Z,100970.83
2023-05-07T11:21:51.256Z,100974.12
2023-05-07T11:22:51.137Z,100983.12
2023-05-07T11:23:59.856Z,100983.42
2023-05-07T11:24:51.798Z,100979.55
2023-05-07T11:25:51.951Z,100979.3
2023-05-07T11:26:51.925Z,100978.59
2023-05-07T11:27:52.087Z,100977.69
2023-05-07T11:28:51.962Z,100977.8
2023-05-07T11:29:51.671Z,100977.78
2023-05-07T11:30:52.360Z,100973.97
2023-05-07T11:31:57.010Z,100978.06
2023-05-07T11:32:53.946Z,100969.88
2023-05-07T11:33:54.949Z,100972.08
2023-05-07T11:34:55.224Z,100971.2
2023-05-07T11:35:56.238Z,100977.34
2023-05-07T11:36:56.095Z,100978.93
2023-05-07T11:38:00.172Z,100975.87
2023-05-07T11:39:00.779Z,100979.05
2023-05-07T11:40:05.697Z,100981
2023-05-07T11:41:04.270Z,100972.91
2023-05-07T11:42:04.393Z,100968.41
2023-05-07T11:43:12.212Z,100969.52
2023-05-07T11:44:05.446Z,100969.36